New Galilee, Pennsylvania
Current Conditions -  °F | °C
As of 10:15 PM on Thursday 27 Nov 2014 (Local Time) from KBTP Reporting Station
Overcast Overcast  
Wind Chill: 18°   Ceiling: 1100
Heat Index: 28°   Visibility: 2mi
Dew Point: 25°   Wind: 12mph
Humidity: 86%   Direction: 240°WSW
Pressure: 30.19"   Gusts: NA
Location:  40.84°N, 80.4°W
Report Text: KBTP 280315Z AUTO 24010KT 2SM OVC011 M02/M04 A3019 RMK AO1
Loading
Personal Weather Stations






























Interactive Weather Map New forecast layout! Learn more

10-Day Weather Forecast

Advertisements
Track Severe Weather on mobile